• Join FlightAware (Why Join?)
  • Login
  • US Flag 
10:41PM EDT


 

Airport Tracker/Info


-or-


 

Live Flight TrackerFlight Track Log ✈ N272AY ✈ 09-Apr-2013 ✈ EDDF / FRA - KCLT

Flight Track Log - Related Links

Times and Time Zones

All times are in EDT time to prevent confusion due to time zone crossing. See the N272AY flight status page for this flight to view local times or setup timezone preferences in your user account.

Time Position Orientation Groundspeed Altitude Reporting Facility
EDT Latitude Longitude Course Direction KTS MPH feet Rate Location/Type
06:49AM 50.0290 8.4780 275° West 169 194 3,400  Level FlightAware
06:49AM 50.0300 8.4530 274° West 174 200 3,900 1,200 Climbing FlightAware
06:50AM 50.0260 8.4080 262° West 208 239 4,500 1,080 Climbing FlightAware
06:50AM 50.0230 8.3820 260° West 228 262 4,800 1,560 Climbing FlightAware
06:51AM 50.0170 8.3310 260° West 249 287 5,700 2,040 Climbing FlightAware
06:51AM 50.0130 8.2970 260° West 257 296 6,500 2,700 Climbing FlightAware
06:51AM 50.0180 8.2630 283° West 266 306 7,500 2,760 Climbing FlightAware
06:52AM 50.0340 8.2050 293° West 276 318 8,800 2,460 Climbing FlightAware
06:52AM 50.0470 8.1610 295° West 281 323 9,800 1,200 Climbing FlightAware
06:53AM 50.0790 8.0810 302° West 292 336 10,200 720 Climbing FlightAware
06:54AM 50.1160 8.0110 310° West 336 387 10,900 1,020 Climbing FlightAware
06:54AM 50.1690 7.9540 325° Northwest 368 423 11,600 1,920 Climbing FlightAware
06:55AM 50.2360 7.8840 326° Northwest 369 425 13,700 2,640 Climbing FlightAware
06:56AM 50.2940 7.8240 327° Northwest 372 428 15,400 2,280 Climbing FlightAware
06:56AM 50.3580 7.7570 326° Northwest 376 433 17,000 2,040 Climbing FlightAware
06:57AM 50.4170 7.6940 326° Northwest 389 448 18,300 1,680 Climbing FlightAware
06:58AM 50.4780 7.6310 327° Northwest 394 453 19,300 1,440 Climbing FlightAware
06:58AM 50.5490 7.5550 326° Northwest 412 474 20,400 1,320 Climbing FlightAware
06:59AM 50.6140 7.4870 326° Northwest 425 489 21,200 1,320 Climbing FlightAware
07:00AM 50.6790 7.4170 326° Northwest 432 497 22,200 2,220 Climbing FlightAware
07:01AM 50.7510 7.3410 326° Northwest 409 471 24,400 2,280 Climbing FlightAware
07:01AM 50.8230 7.2640 326° Northwest 411 473 25,700 1,080 Climbing FlightAware
07:02AM 50.8850 7.1970 326° Northwest 412 474 26,000 420 Climbing FlightAware
07:03AM 50.9460 7.1230 323° Northwest 408 470 26,300 600 Climbing FlightAware
07:03AM 50.9610 7.0850 302° West 396 456 26,600 1,080 Climbing FlightAware
07:04AM 50.9950 6.9820 298° West 399 459 27,300 1,020 Climbing FlightAware
07:04AM 51.0350 6.8630 298° West 408 470 28,100 1,020 Climbing FlightAware
07:05AM 51.0830 6.7680 309° West 427 491 28,800 1,080 Climbing FlightAware
07:06AM 51.1390 6.6790 315° West 421 484 29,600 1,200 Climbing FlightAware
07:06AM 51.1960 6.5860 314° West 420 483 30,500 1,020 Climbing FlightAware
07:07AM 51.2530 6.4950 315° West 424 488 31,100 720 Climbing FlightAware
07:08AM 51.3120 6.3980 314° West 437 503 31,500 720 Climbing FlightAware
07:08AM 51.3790 6.2890 315° West 440 506 32,200 660 Climbing FlightAware
07:09AM 51.4480 6.1770 315° West 452 520 32,500 420 Climbing FlightAware
07:10AM 51.5040 6.0840 314° West 460 529 32,800 480 Climbing FlightAware
07:11AM 51.5610 5.9810 312° West 464 534 33,200 660 Climbing FlightAware
07:11AM 51.6240 5.8630 311° West 463 533 33,800 540 Climbing FlightAware
07:12AM 51.6780 5.7630 311° West 465 535 34,000 180 Climbing FlightAware
07:13AM 51.7360 5.6520 310° West 462 532 34,100 480 Climbing FlightAware
07:13AM 51.7970 5.5370 311° West 461 531 34,700 -720 Climbing FlightAware
07:14AM 51.8248 5.4784 311° West 472 543 33,400 420 Descending FlightAware UK
07:14AM 51.8530 5.4290 311° West 461 531 35,000 120 Climbing FlightAware
07:14AM 51.8800 5.3662 311° West 472 543 33,500 -2,400 Descending FlightAware UK
07:15AM 51.9070 5.3207 314° West 472 543 33,500 4,080 Level FlightAware UK
07:15AM 51.9140 5.3130 314° West 464 534 35,200 1,200 Climbing FlightAware
07:15AM 51.9501 5.2429 314° West 472 543 34,100 900 Descending FlightAware UK
07:15AM 51.9710 5.2030 314° West 460 529 35,800 660 Climbing FlightAware
07:16AM 51.9992 5.1474 314° West 470 541 34,500 240 Descending FlightAware UK
07:16AM 52.0330 5.0830 314° West 464 534 36,000 1,500 Climbing FlightAware
07:17AM 52.0880 4.9750 310° West 462 532 36,200 -1,260 Climbing FlightAware
07:17AM 52.1155 4.9248 310° West 472 543 34,800 600 Descending FlightAware UK
07:18AM 52.1400 4.8740 310° West 462 532 36,600 1,860 Climbing FlightAware
07:18AM 52.2000 4.7570 310° West 463 533 36,900 420 Climbing FlightAware
07:19AM 52.2550 4.6490 310° West 465 535 37,200 -1,020 Climbing FlightAware
07:19AM 52.2879 4.5868 310° West 476 548 35,900 -1,800 Descending FlightAware UK
07:20AM 52.3110 4.5377 308° West 476 548 36,100 4,140 Climbing FlightAware UK
07:20AM 52.3180 4.5230 308° West 463 533 37,700 720 Climbing FlightAware
07:20AM 52.3438 4.4728 308° West 474 545 36,400 420 Descending FlightAware UK
07:20AM 52.3720 4.4160 308° West 461 531 38,000 60 Climbing FlightAware
07:21AM 52.4169 4.3277 308° West 474 545 36,500  Descending FlightAware UK
07:21AM 52.4250 4.3100 308° West 461 531 38,000 1,620 Climbing FlightAware
07:22AM 52.4870 4.1860 309° West 460 529 38,000 -1,140 Level FlightAware
07:22AM 52.5377 4.0847 309° West 476 548 36,500  Descending FlightAware UK
07:22AM 52.5390 4.0810 309° West 461 531 38,000 1,980 Climbing FlightAware
07:23AM 52.5950 3.9690 309° West 462 532 38,000  Level FlightAware
07:24AM 52.6570 3.8430 309° West 462 532 38,000 -1,140 Level FlightAware
07:24AM 52.7062 3.7416 309° West 474 545 36,500  Descending FlightAware UK
07:25AM 52.7080 3.7380 309° West 462 532 38,000  Climbing FlightAware
07:25AM 52.7384 3.6758 309° West 476 548 36,500  Descending FlightAware UK
07:25AM 52.7610 3.6200 309° West 459 528 38,000  Climbing FlightAware
07:26AM 52.7842 3.5491 309° West 478 550 36,500  Descending FlightAware UK
07:26AM 52.8010 3.4830 309° West 458 527 38,000 1,380 Climbing FlightAware
07:27AM 52.8360 3.3560 295° West 458 527 38,000 -1,380 Level FlightAware
07:27AM 52.8605 3.2625 295° West 478 550 36,500  Descending FlightAware UK
07:27AM 52.8750 3.2110 295° West 458 527 38,000  Climbing FlightAware
07:28AM 52.9066 3.0898 295° West 476 548 36,500  Descending FlightAware UK
07:28AM 52.9080 3.0860 295° West 457 526 38,000 2,040 Climbing FlightAware
07:29AM 52.9410 2.9620 294° West 457 526 38,000 -1,260 Level FlightAware
07:29AM 52.9727 2.8405 294° West 476 548 36,500  Descending FlightAware UK
07:29AM 52.9800 2.8150 294° West 456 525 38,000  Climbing FlightAware
07:30AM 53.0081 2.7062 294° West 476 548 36,500  Descending FlightAware UK
07:30AM 53.0130 2.6880 294° West 456 525 38,000  Climbing FlightAware
07:30AM 53.0332 2.6109 294° West 474 545 36,500  Descending FlightAware UK
07:31AM 53.0520 2.5390 294° West 456 525 38,000 1,380 Climbing FlightAware
07:32AM 53.0840 2.4140 293° West 456 525 38,000 -1,560 Level FlightAware
07:32AM 53.1027 2.3414 293° West 474 545 36,500  Descending FlightAware UK
07:32AM 53.1230 2.2640 293° West 457 526 38,000  Climbing FlightAware
07:33AM 53.1373 2.2058 293° West 474 545 36,500  Descending FlightAware UK
07:33AM 53.1560 2.1350 293° West 457 526 38,000  Climbing FlightAware
07:33AM 53.1719 2.0699 293° West 476 548 36,500 -2,520 Descending FlightAware UK
07:34AM 53.1867 2.0116 293° West 476 548 36,500 4,080 Level FlightAware UK
07:34AM 53.1880 2.0090 293° West 458 527 38,000  Climbing FlightAware
07:34AM 53.2064 1.9344 293° West 476 548 36,500  Descending FlightAware UK
07:34AM 53.2200 1.8800 293° West 458 527 38,000  Climbing FlightAware
07:35AM 53.2407 1.7979 293° West 474 545 36,500 -2,280 Descending FlightAware UK
07:35AM 53.2554 1.7393 293° West 474 545 36,500 3,900 Level FlightAware UK
07:35AM 53.2580 1.7300 293° West 458 527 38,000  Climbing FlightAware
07:35AM 53.2750 1.6613 293° West 474 545 36,500 -2,460 Descending FlightAware UK
07:36AM 53.2897 1.6026 293° West 474 545 36,500 4,260 Level FlightAware UK
07:36AM 53.2900 1.6000 293° West 458 527 38,000  Climbing FlightAware
07:36AM 53.3041 1.5447 293° West 474 545 36,500 -2,760 Descending FlightAware UK
07:36AM 53.3187 1.4859 293° West 476 548 36,500 3,000 Level FlightAware UK
07:36AM 53.3270 1.4530 293° West 457 526 38,000  Climbing FlightAware
07:37AM 53.3428 1.3889 293° West 474 545 36,500  Descending FlightAware UK
07:37AM 53.3651 1.2983 293° West 458 527 38,000 1,320 Climbing FlightAware ADS-B
07:38AM 53.3950 1.1780 293° West 458 527 38,000 -1,620 Level FlightAware
07:38AM 53.4099 1.1153 293° West 476 548 36,500 -2,580 Descending FlightAware UK
07:38AM 53.4244 1.0558 292° West 476 548 36,500 3,900 Level FlightAware UK
07:39AM 53.4270 1.0460 292° West 457 526 38,000  Climbing FlightAware
07:39AM 53.4434 0.9779 292° West 474 545 36,500 -2,460 Descending FlightAware UK
07:39AM 53.4578 0.9191 292° West 474 545 36,500 4,260 Level FlightAware UK
07:39AM 53.4550 0.9290 292° West 456 525 38,000  Climbing FlightAware
07:40AM 53.4766 0.8405 292° West 472 543 36,500  Descending FlightAware UK
07:40AM 53.4930 0.7730 292° West 457 526 38,000  Climbing FlightAware
07:40AM 53.5096 0.7027 292° West 474 545 36,500 -2,580 Descending FlightAware UK
07:41AM 53.5235 0.6442 292° West 476 548 36,500  Level FlightAware UK
07:41AM 53.5378 0.5842 292° West 476 548 36,500 4,500 Level FlightAware UK
07:41AM 53.5350 0.5940 292° West 457 526 38,000  Climbing FlightAware
07:41AM 53.5517 0.5256 292° West 476 548 36,500  Descending FlightAware UK
07:41AM 53.5665 0.4630 292° West 457 526 38,000 1,680 Climbing FlightAware ADS-B
07:42AM 53.5925 0.3520 292° West 457 526 38,000 -1,740 Level FlightAware ADS-B
07:42AM 53.6077 0.2883 292° West 476 548 36,500  Descending FlightAware UK
07:43AM 53.6187 0.2404 292° West 457 526 38,000  Climbing FlightAware ADS-B
07:43AM 53.6353 0.1702 292° West 474 545 36,500  Descending FlightAware UK
07:43AM 53.6434 0.1346 292° West 457 526 38,000  Climbing FlightAware ADS-B
07:43AM 53.6583 0.0711 292° West 476 548 36,500  Descending FlightAware UK
07:44AM 53.6694 0.0301 292° West 457 526 38,000 3,900 Climbing FlightAware ADS-B
07:44AM 53.6790 -0.0001 298° West 458 527 38,000  Level FlightAware ADS-B
07:44AM 53.7192 -0.0973 305° West 459 528 38,000 -1,860 Level FlightAware ADS-B
07:45AM 53.7424 -0.1398 305° West 474 545 36,500  Descending FlightAware UK
07:45AM 53.7849 -0.2013 305° West 461 531 38,000  Climbing FlightAware ADS-B
07:45AM 53.8228 -0.2446 305° West 474 545 36,500  Descending FlightAware UK
07:46AM 53.8570 -0.2850 305° West 462 532 38,000  Climbing FlightAware
07:46AM 53.8860 -0.3184 305° West 474 545 36,500 -2,760 Descending FlightAware UK
07:46AM 53.9179 -0.3550 326° Northwest 476 548 36,500 3,600 Level FlightAware UK
07:46AM 53.9250 -0.3640 326° Northwest 463 533 38,000  Climbing FlightAware
07:47AM 53.9815 -0.4283 326° Northwest 476 548 36,500  Descending FlightAware UK
07:47AM 53.9970 -0.4470 326° Northwest 463 533 38,000  Climbing FlightAware
07:47AM 54.0344 -0.4901 326° Northwest 476 548 36,500 -2,100 Descending FlightAware UK
07:48AM 54.0767 -0.5393 326° Northwest 476 548 36,500 3,420 Level FlightAware UK
07:48AM 54.0780 -0.5410 326° Northwest 462 532 38,000  Climbing FlightAware
07:48AM 54.1189 -0.5887 326° Northwest 474 545 36,500  Descending FlightAware UK
07:49AM 54.1440 -0.6190 326° Northwest 462 532 38,000 1,380 Climbing FlightAware
07:49AM 54.2250 -0.7140 326° Northwest 462 532 38,000 -1,500 Level FlightAware
07:50AM 54.2553 -0.7496 326° Northwest 474 545 36,500 -2,760 Descending FlightAware UK
07:50AM 54.2869 -0.7868 325° Northwest 472 543 36,500 3,600 Level FlightAware UK
07:50AM 54.2920 -0.7940 325° Northwest 461 531 38,000  Climbing FlightAware
07:50AM 54.3394 -0.8489 325° Northwest 472 543 36,500  Descending FlightAware UK
07:51AM 54.3630 -0.8780 325° Northwest 462 532 38,000  Climbing FlightAware
07:51AM 54.3709 -0.8863 325° Northwest 474 545 36,500 -4,740 Descending FlightAware UK
07:51AM 54.4024 -0.9239 325° Northwest 474 545 36,500  Level FlightAware UK
07:51AM 54.4340 -0.9616 325° Northwest 474 545 36,500 2,880 Level FlightAware UK
07:51AM 54.4510 -0.9830 325° Northwest 463 533 38,000  Climbing FlightAware
07:52AM 54.4866 -1.0247 325° Northwest 476 548 36,500 -2,700 Descending FlightAware UK
07:52AM 54.5178 -1.0622 325° Northwest 474 545 36,500 3,900 Level FlightAware UK
07:52AM 54.5210 -1.0670 325° Northwest 463 533 38,000  Climbing FlightAware
07:52AM 54.5599 -1.1129 325° Northwest 474 545 36,500 -2,520 Descending FlightAware UK
07:53AM 54.5914 -1.1509 325° Northwest 474 545 36,500 4,080 Level FlightAware UK
07:53AM 54.5950 -1.1560 325° Northwest 462 532 38,000  Climbing FlightAware
07:53AM 54.6645 -1.2391 325° Northwest 472 543 36,500  Descending FlightAware UK
07:53AM 54.6650 -1.2400 325° Northwest 461 531 38,000  Climbing FlightAware
07:54AM 54.7063 -1.2900 325° Northwest 472 543 36,500  Descending FlightAware UK
07:54AM 54.7420 -1.3330 325° Northwest 461 531 38,000  Climbing FlightAware
07:55AM 54.8003 -1.4044 325° Northwest 472 543 36,500  Descending FlightAware UK
07:55AM 54.8110 -1.4170 325° Northwest 462 532 38,000  Climbing FlightAware
07:55AM 54.8731 -1.4937 325° Northwest 472 543 36,500  Descending FlightAware UK
07:56AM 54.8810 -1.5030 325° Northwest 463 533 38,000  Climbing FlightAware
07:56AM 54.9254 -1.5580 325° Northwest 472 543 36,500  Descending FlightAware UK
07:56AM 54.9680 -1.6120 325° Northwest 463 533 38,000  Climbing FlightAware
07:57AM 54.9958 -1.6546 325° Northwest 476 548 36,500 -2,760 Descending FlightAware UK
07:57AM 55.0222 -1.7028 314° West 476 548 36,500 3,600 Level FlightAware UK
07:57AM 55.0280 -1.7140 314° West 459 528 38,000  Climbing FlightAware
07:57AM 55.0539 -1.7719 314° West 474 545 36,500  Descending FlightAware UK
07:58AM 55.0770 -1.8370 314° West 455 524 38,000  Climbing FlightAware
07:58AM 55.1089 -1.9439 314° West 472 543 36,500  Descending FlightAware UK
07:58AM 55.1190 -1.9790 314° West 454 522 38,000  Climbing FlightAware
07:59AM 55.1426 -2.0616 314° West 472 543 36,500  Descending FlightAware UK
07:59AM 55.1560 -2.1070 314° West 455 524 38,000  Climbing FlightAware
07:59AM 55.1762 -2.1799 314° West 474 545 36,500  Descending FlightAware UK
08:00AM 55.1930 -2.2400 314° West 455 524 38,000  Climbing FlightAware
08:00AM 55.2150 -2.3176 314° West 474 545 36,500 -2,400 Descending FlightAware UK
08:00AM 55.2316 -2.3769 296° West 474 545 36,500 3,600 Level FlightAware UK
08:01AM 55.2360 -2.3930 296° West 453 521 38,000  Climbing FlightAware
08:01AM 55.2594 -2.4756 296° West 472 543 36,500  Descending FlightAware UK
08:01AM 55.2710 -2.5160 296° West 453 521 38,000  Climbing FlightAware
08:02AM 55.3012 -2.6342 296° West 472 543 36,500  Descending FlightAware UK
08:02AM 55.3100 -2.6790 296° West 452 520 38,000  Climbing FlightAware
08:02AM 55.3185 -2.7392 296° West 470 541 36,500  Descending FlightAware UK
08:03AM 55.3280 -2.8160 296° West 451 519 38,000  Climbing FlightAware
08:03AM 55.3372 -2.8893 296° West 472 543 36,500 -2,580 Descending FlightAware UK
08:03AM 55.3451 -2.9530 282° West 470 541 36,500 3,900 Level FlightAware UK
08:03AM 55.3460 -2.9600 282° West 453 521 38,000  Climbing FlightAware
08:04AM 55.3584 -3.0606 282° West 472 543 36,500  Descending FlightAware UK
08:04AM 55.3600 -3.0760 282° West 454 522 38,000  Climbing FlightAware
08:04AM 55.3715 -3.1685 282° West 474 545 36,500 -2,400 Descending FlightAware UK
08:05AM 55.3795 -3.2333 282° West 474 545 36,500  Level FlightAware UK
08:05AM 55.3898 -3.3193 282° West 474 545 36,500  Level FlightAware UK
08:05AM 55.3977 -3.3841 282° West 472 543 36,500  Level FlightAware UK
08:06AM 55.4054 -3.4491 282° West 474 545 36,500  Level FlightAware UK
08:06AM 55.4131 -3.5140 282° West 472 543 36,500 4,080 Level FlightAware UK
08:06AM 55.4130 -3.5140 282° West 454 522 38,000  Climbing FlightAware
08:06AM 55.4260 -3.6213 282° West 474 545 36,500  Descending FlightAware UK
08:07AM 55.4310 -3.6670 282° West 453 521 38,000  Climbing FlightAware
08:07AM 55.4461 -3.7948 282° West 472 543 36,500  Descending FlightAware UK
08:07AM 55.4470 -3.8060 282° West 454 522 38,000  Climbing FlightAware
08:08AM 55.4584 -3.9028 282° West 472 543 36,500  Descending FlightAware UK
08:08AM 55.4660 -3.9660 282° West 453 521 38,000  Climbing FlightAware
08:08AM 55.4734 -4.0323 282° West 472 543 36,500 -2,760 Descending FlightAware UK
08:09AM 55.4807 -4.0972 281° West 474 545 36,500 3,600 Level FlightAware UK
08:09AM 55.4820 -4.1120 281° West 452 520 38,000  Climbing FlightAware
08:09AM 55.4931 -4.2047 281° West 474 545 36,500  Descending FlightAware UK
08:09AM 55.5000 -4.2650 281° West 452 520 38,000  Climbing FlightAware
08:10AM 55.5124 -4.3781 281° West 474 545 36,500  Descending FlightAware UK
08:10AM 55.5180 -4.4310 281° West 452 520 38,000  Climbing FlightAware
08:10AM 55.5268 -4.5079 281° West 472 543 36,500 -2,700 Descending FlightAware UK
08:11AM 55.5337 -4.5721 281° West 472 543 36,500 3,900 Level FlightAware UK
08:11AM 55.5340 -4.5760 281° West 451 519 38,000  Climbing FlightAware
08:11AM 55.5455 -4.6801 281° West 472 543 36,500  Descending FlightAware UK
08:11AM 55.5490 -4.7110 281° West 450 518 38,000  Climbing FlightAware
08:12AM 55.5595 -4.8099 281° West 472 543 36,500 -2,400 Descending FlightAware UK
08:12AM 55.5664 -4.8748 281° West 472 543 36,500 3,600 Level FlightAware UK
08:12AM 55.5680 -4.8870 281° West 451 519 38,000  Climbing FlightAware
08:13AM 55.5757 -4.9616 281° West 472 543 36,500 -2,580 Descending FlightAware UK
08:13AM 55.5826 -5.0268 281° West 474 545 36,500  Level FlightAware UK
08:13AM 55.5915 -5.1138 280° West 472 543 36,500 2,520 Level FlightAware UK
08:13AM 55.5930 -5.1260 280° West 451 519 38,000  Climbing FlightAware
08:14AM 55.6029 -5.2224 280° West 470 541 36,500 -2,460 Descending FlightAware UK
08:14AM 55.6096 -5.2876 280° West 472 543 36,500 4,260 Level FlightAware UK
08:14AM 55.6090 -5.2820 280° West 451 519 38,000  Climbing FlightAware
08:14AM 55.6163 -5.3520 280° West 474 545 36,500 -2,760 Descending FlightAware UK
08:15AM 55.6230 -5.4180 280° West 474 545 36,500 3,600 Level FlightAware UK
08:15AM 55.6230 -5.4210 280° West 451 519 38,000  Climbing FlightAware
08:15AM 55.6318 -5.5049 280° West 474 545 36,500 -2,580 Descending FlightAware UK
08:15AM 55.6370 -5.5703 278° West 470 541 36,500 3,180 Level FlightAware UK
08:15AM 55.6380 -5.5870 278° West 450 518 38,000  Climbing FlightAware
08:16AM 55.6450 -5.6789 278° West 470 541 36,500 -2,400 Descending FlightAware UK
08:16AM 55.6499 -5.7445 278° West 472 543 36,500 4,800 Level FlightAware UK
08:16AM 55.6490 -5.7320 278° West 452 520 38,100 960 Climbing FlightAware
08:16AM 55.6549 -5.8103 278° West 472 543 36,800 -1,800 Descending FlightAware UK
08:17AM 55.6598 -5.8755 278° West 468 539 37,100 3,900 Climbing FlightAware UK
08:17AM 55.6620 -5.9070 278° West 446 513 38,700 360 Climbing FlightAware
08:17AM 55.6679 -5.9839 278° West 472 543 37,300 -2,160 Descending FlightAware UK
08:18AM 55.6727 -6.0490 278° West 472 543 37,400 4,560 Climbing FlightAware UK
08:18AM 55.6720 -6.0410 278° West 448 516 38,900 300 Climbing FlightAware
08:18AM 55.6775 -6.1143 278° West 472 543 37,500 -2,580 Descending FlightAware UK
08:18AM 55.6824 -6.1797 278° West 474 545 37,500  Level FlightAware UK
08:18AM 55.6870 -6.2455 277° West 474 545 37,500  Level FlightAware UK
08:19AM 55.6918 -6.3114 277° West 474 545 37,500  Level FlightAware UK
08:19AM 55.6964 -6.3774 277° West 474 545 37,500  Level FlightAware UK
08:19AM 55.7011 -6.4428 277° West 474 545 37,500  Level FlightAware UK
08:20AM 55.7057 -6.5087 277° West 474 545 37,500  Level FlightAware UK
08:20AM 55.7103 -6.5746 277° West 474 545 37,500  Level FlightAware UK
08:20AM 55.7148 -6.6405 277° West 474 545 37,500  Level FlightAware UK
08:21AM 55.7193 -6.7065 277° West 476 548 37,500  Level FlightAware UK
08:21AM 55.7239 -6.7726 277° West 474 545 37,500  Level FlightAware UK
08:21AM 55.7283 -6.8387 277° West 476 548 37,500  Level FlightAware UK
08:21AM 55.7326 -6.9049 277° West 474 545 37,500  Level FlightAware UK
08:22AM 55.7370 -6.9712 277° West 474 545 37,500  Level FlightAware UK
08:22AM 55.7413 -7.0375 277° West 474 545 37,500  Level FlightAware UK
08:22AM 55.7456 -7.1039 277° West 476 548 37,500  Level FlightAware UK
08:23AM 55.7499 -7.1703 277° West 476 548 37,500  Level FlightAware UK
08:23AM 55.7542 -7.2367 277° West 476 548 37,500  Level FlightAware UK
08:23AM 55.7584 -7.3030 276° West 474 545 37,500  Level FlightAware UK
08:24AM 55.7627 -7.3693 277° West 474 545 37,500  Level FlightAware UK
08:24AM 55.7668 -7.4356 276° West 474 545 37,500  Level FlightAware UK
08:24AM 55.7708 -7.5012 276° West 474 545 37,500  Level FlightAware UK
08:24AM 55.7748 -7.5675 276° West 472 543 37,500 3,300 Level FlightAware UK
08:25AM 55.7750 -7.5710 276° West 453 521 39,000  Climbing FlightAware
08:25AM 55.7801 -7.6560 276° West 474 545 37,500 -2,760 Descending FlightAware UK
08:25AM 55.7841 -7.7225 276° West 474 545 37,500 3,600 Level FlightAware UK
08:25AM 55.7850 -7.7350 276° West 453 521 39,000  Climbing FlightAware
08:26AM 55.7893 -7.8110 276° West 472 543 37,500 -2,580 Descending FlightAware UK
08:26AM 55.7932 -7.8775 276° West 474 545 37,500 3,180 Level FlightAware UK
08:26AM 55.7940 -7.8980 276° West 454 522 39,000  Climbing FlightAware
08:26AM 55.7998 -7.9884 276° West 474 545 37,500 -2,400 Descending FlightAware UK
08:27AM 55.8035 -8.0550 276° West 474 545 37,500 4,500 Level FlightAware UK
08:27AM 55.8030 -8.0470 276° West 454 522 39,000  Climbing FlightAware
08:27AM 55.8072 -8.1216 276° West 474 545 37,500 -2,700 Descending FlightAware UK
08:27AM 55.8109 -8.1883 276° West 474 545 37,500 3,060 Level FlightAware UK
08:27AM 55.8130 -8.2230 276° West 454 522 39,000  Climbing FlightAware
08:28AM 55.8170 -8.2993 276° West 476 548 37,500 -2,460 Descending FlightAware UK
08:28AM 55.8207 -8.3659 276° West 476 548 37,500 4,260 Level FlightAware UK
08:28AM 55.8210 -8.3660 276° West 453 521 39,000  Climbing FlightAware
08:28AM 55.8243 -8.4324 276° West 474 545 37,500 -2,760 Descending FlightAware UK
08:29AM 55.8278 -8.4988 275° West 474 545 37,500 3,600 Level FlightAware UK
08:29AM 55.8280 -8.5110 275° West 452 520 39,000  Climbing FlightAware
08:29AM 55.8326 -8.5872 275° West 472 543 37,500 -2,580 Descending FlightAware UK
08:29AM 55.8360 -8.6534 275° West 472 543 37,500 3,180 Level FlightAware UK
08:29AM 55.8370 -8.6820 275° West 451 519 39,000  Climbing FlightAware
08:30AM 55.8416 -8.7632 275° West 472 543 37,500 -2,400 Descending FlightAware UK
08:30AM 55.8450 -8.8295 275° West 472 543 37,500 4,500 Level FlightAware UK
08:30AM 55.8450 -8.8280 275° West 451 519 39,000  Climbing FlightAware
08:30AM 55.8483 -8.8959 275° West 472 543 37,500 -2,700 Descending FlightAware UK
08:31AM 55.8515 -8.9622 275° West 472 543 37,500 3,720 Level FlightAware UK
08:31AM 55.8520 -8.9770 275° West 451 519 39,000 1,740 Climbing FlightAware
08:32AM 55.8600 -9.1430 275° West 451 519 39,000  Level FlightAware
08:32AM 55.8670 -9.2870 275° West 452 520 39,000  Level FlightAware
08:34AM 55.8810 -9.5910 275° West 434 499 39,000  Level FlightAware
08:34AM 55.8880 -9.7480 275° West 435 501 39,000  Level FlightAware
08:35AM 55.8940 -9.8960 274° West 437 503 39,000  Level FlightAware
08:36AM 55.9000 -10.0350 274° West 438 504 39,000  Level FlightAware
08:36AM 55.9060 -10.1950 274° West 437 503 39,000  Level FlightAware
08:37AM 55.9120 -10.3310 275° West 437 503 39,000  Level FlightAware
08:38AM 55.9190 -10.5090 274° West 436 502 39,000  Level FlightAware
08:39AM 55.9260 -10.7040 274° West 436 502 39,000  Level FlightAware
08:39AM 55.9310 -10.8500 274° West 435 501 39,000  Level FlightAware
08:40AM 55.9360 -11.0070 273° West 436 502 39,000  Level FlightAware
08:41AM 55.9410 -11.1540 274° West 436 502 39,000  Level FlightAware
08:42AM 55.9450 -11.2960 273° West 436 502 39,000  Level FlightAware
08:42AM 55.9500 -11.4590 273° West 435 501 39,000  Level FlightAware
08:43AM 55.9550 -11.5990 274° West 435 501 39,000  Level FlightAware
08:44AM 55.9590 -11.7410 273° West 432 497 39,000  Level FlightAware
08:45AM 55.9650 -12.0270 272° West 430 495 39,000  Level FlightAware
08:46AM 55.9670 -12.1480 272° West 430 495 39,000  Level FlightAware
08:46AM 55.9700 -12.2680 273° West 430 495 39,000  Level FlightAware
08:47AM 55.9730 -12.4190 272° West 430 495 39,000  Level FlightAware
08:48AM 55.9750 -12.5400 272° West 430 495 39,000  Level FlightAware
08:49AM 55.9770 -12.6610 272° West 430 495 39,000  Level FlightAware
08:49AM 55.9800 -12.7820 273° West 430 495 39,000  Level FlightAware
08:50AM 55.9820 -12.9030 272° West 430 495 39,000  Level FlightAware
08:51AM 55.9850 -13.0540 272° West 430 495 39,000  Level FlightAware
08:51AM 55.9870 -13.1750 272° West 430 495 39,000  Level FlightAware
08:52AM 55.9900 -13.2950 273° West 430 495 39,000  Level FlightAware
08:53AM 55.9920 -13.4160 272° West 430 495 39,000  Level FlightAware
08:53AM 55.9940 -13.5370 272° West 430 495 39,000  Level FlightAware
08:54AM 55.9970 -13.6880 272° West 430 495 39,000  Level FlightAware
08:57AM 56.0183 -14.1825 275° West  Level Estimated
08:58AM 56.0270 -14.3993 274° West  Level Estimated
08:59AM 56.0353 -14.6161 274° West  Level Estimated
09:00AM 56.0432 -14.8327 274° West  Level Estimated
09:01AM 56.0507 -15.0497 274° West  Level Estimated
09:02AM 56.0579 -15.2668 273° West  Level Estimated
09:03AM 56.0647 -15.4840 273° West  Level Estimated
09:04AM 56.0711 -15.7013 273° West  Level Estimated
09:05AM 56.0771 -15.9186 273° West  Level Estimated
09:06AM 56.0828 -16.1360 273° West  Level Estimated
09:07AM 56.0880 -16.3535 273° West  Level Estimated
09:08AM 56.0929 -16.5710 272° West  Level Estimated
09:09AM 56.0974 -16.7885 272° West  Level Estimated
09:10AM 56.1015 -17.0062 272° West  Level Estimated
09:11AM 56.1053 -17.2238 272° West  Level Estimated
09:12AM 56.1086 -17.4415 272° West  Level Estimated
09:13AM 56.1116 -17.6593 271° West  Level Estimated
09:14AM 56.1142 -17.8771 271° West  Level Estimated
09:15AM 56.1163 -18.0949 271° West  Level Estimated
09:16AM 56.1182 -18.3127 271° West  Level Estimated
09:17AM 56.1196 -18.5305 271° West  Level Estimated
09:18AM 56.1207 -18.7484 271° West  Level Estimated
09:19AM 56.1213 -18.9662 270° West  Level Estimated
09:20AM 56.1216 -19.1841 270° West  Level Estimated
09:21AM 56.1215 -19.4020 270° West  Level Estimated
09:22AM 56.1210 -19.6199 270° West  Level Estimated
09:23AM 56.1202 -19.8377 270° West  Level Estimated
09:23AM 57.0000 -20.0000 274° West 466 536 39,000  Level ETMS Enhanced Traffic Management System
09:24AM 56.1189 -20.0556 269° West  Level Estimated
09:25AM 56.1173 -20.2734 269° West  Level Estimated
09:26AM 56.1152 -20.4912 269° West  Level Estimated
09:27AM 56.1129 -20.7090 269° West  Level Estimated
09:28AM 56.1101 -20.9268 269° West  Level Estimated
09:29AM 57.0554 -21.6633 273° West 466 536 39,000  Level FlightAware Transoceanic
09:30AM 57.0615 -21.9013 273° West 466 536 39,000  Level FlightAware Transoceanic
09:31AM 57.0671 -22.1394 272° West 466 536 39,000  Level FlightAware Transoceanic
09:32AM 57.0723 -22.3776 272° West 466 536 39,000  Level FlightAware Transoceanic
09:33AM 57.0771 -22.6157 272° West 466 536 39,000  Level FlightAware Transoceanic
09:34AM 57.0814 -22.8540 272° West 466 536 39,000  Level FlightAware Transoceanic
09:35AM 57.0852 -23.0923 272° West 466 536 39,000  Level FlightAware Transoceanic
09:36AM 57.0886 -23.3307 271° West 466 536 39,000  Level FlightAware Transoceanic
09:37AM 57.0915 -23.5691 271° West 466 536 39,000  Level FlightAware Transoceanic
09:38AM 57.0940 -23.8075 271° West 466 536 39,000  Level FlightAware Transoceanic
09:39AM 57.0961 -24.0460 271° West 466 536 39,000  Level FlightAware Transoceanic
09:40AM 57.0977 -24.2845 271° West 466 536 39,000  Level FlightAware Transoceanic
09:41AM 57.0988 -24.5230 270° West 466 536 39,000  Level FlightAware Transoceanic
09:42AM 57.0995 -24.7615 270° West 466 536 39,000  Level FlightAware Transoceanic
09:43AM 57.0997 -25.0000 270° West 466 536 39,000  Level FlightAware Transoceanic
09:44AM 57.0995 -25.2385 270° West 466 536 39,000  Level FlightAware Transoceanic
09:45AM 57.0988 -25.4770 270° West 466 536 39,000  Level FlightAware Transoceanic
09:46AM 57.0977 -25.7155 269° West 466 536 39,000  Level FlightAware Transoceanic
09:47AM 57.0961 -25.9540 269° West 466 536 39,000  Level FlightAware Transoceanic
09:48AM 57.0940 -26.1925 269° West 466 536 39,000  Level FlightAware Transoceanic
09:49AM 57.0915 -26.4309 269° West 466 536 39,000  Level FlightAware Transoceanic
09:50AM 57.0886 -26.6693 269° West 466 536 39,000  Level FlightAware Transoceanic
09:51AM 57.0852 -26.9077 268° West 466 536 39,000  Level FlightAware Transoceanic
09:52AM 57.0814 -27.1460 268° West 466 536 39,000  Level FlightAware Transoceanic
09:53AM 57.0771 -27.3843 268° West 466 536 39,000  Level FlightAware Transoceanic
09:54AM 57.0723 -27.6224 268° West 466 536 39,000  Level FlightAware Transoceanic
09:55AM 57.0671 -27.8606 268° West 466 536 39,000  Level FlightAware Transoceanic
09:56AM 57.0615 -28.0987 267° West 466 536 39,000  Level FlightAware Transoceanic
09:57AM 57.0554 -28.3367 267° West 466 536 39,000  Level FlightAware Transoceanic
09:58AM 57.0488 -28.5746 267° West 466 536 39,000  Level FlightAware Transoceanic
09:59AM 57.0418 -28.8124 267° West 466 536 39,000  Level FlightAware Transoceanic
10:00AM 57.0343 -29.0501 267° West 466 536 39,000  Level FlightAware Transoceanic
10:01AM 57.0264 -29.2878 266° West 466 536 39,000  Level FlightAware Transoceanic
10:02AM 57.0181 -29.5253 266° West 466 536 39,000  Level FlightAware Transoceanic
10:03AM 57.0093 -29.7627 266° West 466 536 39,000  Level FlightAware Transoceanic
10:04AM 57.0006 -29.9851 266° West  Level FlightAware Approximate
10:05AM 56.9916 -30.2075 266° West  Level FlightAware Approximate
10:06AM 56.9883 -30.1920 264° West  Level FlightAware Approximate
10:07AM 56.9745 -30.4134 264° West  Level FlightAware Approximate
10:08AM 56.9603 -30.6347 263° West  Level FlightAware Approximate
10:09AM 56.9458 -30.8558 263° West  Level FlightAware Approximate
10:10AM 56.9308 -31.0767 263° West  Level FlightAware Approximate
10:11AM 56.9154 -31.2975 263° West  Level FlightAware Approximate
10:12AM 56.8997 -31.5180 263° West  Level FlightAware Approximate
10:13AM 56.8835 -31.7384 262° West  Level FlightAware Approximate
10:14AM 56.8670 -31.9586 262° West  Level FlightAware Approximate
10:15AM 56.8501 -32.1786 262° West  Level FlightAware Approximate
10:16AM 56.8328 -32.3983 262° West  Level FlightAware Approximate
10:17AM 56.8151 -32.6179 262° West  Level FlightAware Approximate
10:18AM 56.7970 -32.8373 262° West  Level FlightAware Approximate
10:19AM 56.7785 -33.0564 261° West  Level FlightAware Approximate
10:20AM 56.7597 -33.2754 261° West  Level FlightAware Approximate
10:21AM 56.7405 -33.4941 261° West  Level FlightAware Approximate
10:22AM 56.7209 -33.7126 261° West  Level FlightAware Approximate
10:23AM 56.7009 -33.9308 261° West  Level FlightAware Approximate
10:24AM 56.6805 -34.1488 260° West  Level FlightAware Approximate
10:25AM 56.6598 -34.3666 260° West  Level FlightAware Approximate
10:26AM 56.6386 -34.5842 260° West  Level FlightAware Approximate
10:27AM 56.6171 -34.8015 260° West  Level FlightAware Approximate
10:28AM 56.5952 -35.0185 260° West  Level FlightAware Approximate
10:29AM 56.5729 -35.2353 260° West  Level FlightAware Approximate
10:30AM 56.5503 -35.4519 259° West  Level FlightAware Approximate
10:31AM 56.5273 -35.6681 259° West  Level FlightAware Approximate
10:32AM 56.5044 -35.8843 259° West  Level FlightAware Approximate
10:33AM 56.4816 -36.1004 259° West  Level FlightAware Approximate
10:34AM 56.4585 -36.3162 259° West  Level FlightAware Approximate
10:35AM 56.4349 -36.5318 259° West  Level FlightAware Approximate
10:36AM 56.4110 -36.7471 259° West  Level FlightAware Approximate
10:37AM 56.3867 -36.9622 259° West  Level FlightAware Approximate
10:38AM 56.3621 -37.1769 258° West  Level FlightAware Approximate
10:39AM 56.3371 -37.3914 258° West  Level FlightAware Approximate
10:40AM 56.3117 -37.6056 258° West  Level FlightAware Approximate
10:41AM 56.2859 -37.8195 258° West  Level FlightAware Approximate
10:42AM 56.2598 -38.0331 258° West  Level FlightAware Approximate
10:43AM 56.2333 -38.2464 257° West  Level FlightAware Approximate
10:44AM 56.2064 -38.4594 257° West  Level FlightAware Approximate
10:45AM 56.1792 -38.6721 257° West  Level FlightAware Approximate
10:46AM 56.1516 -38.8845 257° West  Level FlightAware Approximate
10:47AM 56.1236 -39.0967 257° West  Level FlightAware Approximate
10:48AM 56.0953 -39.3085 257° West  Level FlightAware Approximate
10:49AM 56.0666 -39.5200 256° West  Level FlightAware Approximate
10:50AM 56.0376 -39.7311 256° West  Level FlightAware Approximate
10:51AM 56.0082 -39.9420 256° West  Level FlightAware Approximate
10:52AM 55.9645 -40.1439 246° West  Level FlightAware Approximate
10:53AM 55.9153 -40.3421 246° West  Level FlightAware Approximate
10:54AM 55.8657 -40.5399 246° West  Level FlightAware Approximate
10:55AM 55.8158 -40.7371 246° West  Level FlightAware Approximate
10:56AM 55.7657 -40.9338 246° West  Level FlightAware Approximate
10:57AM 55.7151 -41.1300 246° West  Level FlightAware Approximate
10:58AM 55.6644 -41.3257 246° West  Level FlightAware Approximate
10:59AM 55.6144 -41.5219 246° West  Level FlightAware Approximate
11:00AM 55.5642 -41.7175 246° West  Level FlightAware Approximate
11:01AM 55.5136 -41.9126 245° Southwest  Level FlightAware Approximate
11:02AM 55.4627 -42.1073 245° Southwest  Level FlightAware Approximate
11:03AM 55.4115 -42.3014 245° Southwest  Level FlightAware Approximate
11:04AM 55.3600 -42.4950 245° Southwest  Level FlightAware Approximate
11:05AM 55.3082 -42.6882 245° Southwest  Level FlightAware Approximate
11:06AM 55.2561 -42.8808 245° Southwest  Level FlightAware Approximate
11:07AM 55.2037 -43.0729 245° Southwest  Level FlightAware Approximate
11:08AM 55.1510 -43.2645 244° Southwest  Level FlightAware Approximate
11:09AM 55.0980 -43.4556 244° Southwest  Level FlightAware Approximate
11:10AM 55.0447 -43.6462 244° Southwest  Level FlightAware Approximate
11:11AM 54.9911 -43.8363 244° Southwest  Level FlightAware Approximate
11:12AM 54.9372 -44.0258 244° Southwest  Level FlightAware Approximate
11:13AM 54.8830 -44.2149 244° Southwest  Level FlightAware Approximate
11:14AM 54.8285 -44.4035 243° Southwest  Level FlightAware Approximate
11:15AM 54.7737 -44.5915 243° Southwest  Level FlightAware Approximate
11:16AM 54.7186 -44.7791 243° Southwest  Level FlightAware Approximate
11:17AM 54.6633 -44.9661 243° Southwest  Level FlightAware Approximate
11:18AM 54.6076 -45.1526 243° Southwest  Level FlightAware Approximate
11:19AM 54.5517 -45.3386 243° Southwest  Level FlightAware Approximate
11:20AM 54.4955 -45.5241 243° Southwest  Level FlightAware Approximate
11:21AM 54.4390 -45.7091 242° Southwest  Level FlightAware Approximate
11:22AM 54.3822 -45.8936 242° Southwest  Level FlightAware Approximate
11:23AM 54.3251 -46.0775 242° Southwest  Level FlightAware Approximate
11:24AM 54.2678 -46.2610 242° Southwest  Level FlightAware Approximate
11:25AM 54.2102 -46.4439 242° Southwest  Level FlightAware Approximate
11:26AM 54.1523 -46.6264 242° Southwest  Level FlightAware Approximate
11:27AM 54.0941 -46.8083 241° Southwest  Level FlightAware Approximate
11:28AM 54.0356 -46.9897 241° Southwest  Level FlightAware Approximate
11:29AM 53.9769 -47.1706 241° Southwest  Level FlightAware Approximate
11:30AM 53.9179 -47.3510 241° Southwest  Level FlightAware Approximate
11:31AM 53.8587 -47.5309 241° Southwest  Level FlightAware Approximate
11:32AM 53.7992 -47.7102 241° Southwest  Level FlightAware Approximate
11:33AM 53.7394 -47.8891 241° Southwest  Level FlightAware Approximate
11:34AM 53.6793 -48.0674 240° Southwest  Level FlightAware Approximate
11:35AM 53.6190 -48.2453 240° Southwest  Level FlightAware Approximate
11:36AM 53.5584 -48.4226 240° Southwest  Level FlightAware Approximate
11:37AM 53.4976 -48.5994 240° Southwest  Level FlightAware Approximate
11:38AM 53.4365 -48.7757 240° Southwest  Level FlightAware Approximate
11:39AM 53.3751 -48.9516 240° Southwest  Level FlightAware Approximate
11:40AM 53.3135 -49.1269 240° Southwest  Level FlightAware Approximate
11:41AM 53.2516 -49.3017 239° Southwest  Level FlightAware Approximate
11:41AM 52.9333 -50.3167 248° West 310 357 39,000  Level Gander Center
11:42AM 53.1895 -49.4759 239° Southwest  Level FlightAware Approximate
11:42AM 52.8833 -50.5000 246° West 450 518 39,000  Level Gander Center
11:43AM 53.1271 -49.6497 239° Southwest  Level FlightAware Approximate
11:43AM 52.8667 -50.6500 260° West 430 495 39,000  Level Gander Center
11:44AM 53.0644 -49.8230 239° Southwest  Level FlightAware Approximate
11:44AM 52.8167 -50.8500 248° West 430 495 39,000  Level Gander Center
11:45AM 53.0015 -49.9958 239° Southwest  Level FlightAware Approximate
11:45AM 52.7667 -51.0333 246° West 430 495 39,000  Level Gander Center
11:46AM 52.9567 -50.1831 249° West  Level FlightAware Approximate
11:46AM 52.7333 -51.2000 252° West 430 495 39,000  Level Gander Center
11:47AM 52.9120 -50.3705 248° West  Level FlightAware Approximate
11:47AM 52.6833 -51.4167 249° West 430 495 39,000  Level Gander Center
11:48AM 52.6500 -51.5833 252° West 440 506 39,000  Level Gander Center
11:49AM 52.6000 -51.8167 251° West 440 506 39,000  Level Gander Center
11:50AM 52.5667 -52.0000 253° West 440 506 39,000  Level Gander Center
11:51AM 52.5167 -52.2000 248° West 440 506 39,000  Level Gander Center
11:52AM 52.4833 -52.4000 255° West 440 506 39,000  Level Gander Center
11:53AM 52.4333 -52.5500 241° Southwest 440 506 39,000  Level Gander Center
11:54AM 52.3833 -52.7500 248° West 440 506 39,000  Level Gander Center
11:55AM 52.3500 -52.9167 252° West 440 506 39,000  Level Gander Center
11:56AM 52.3000 -53.1167 248° West 430 495 39,000  Level Gander Center
11:57AM 52.2333 -53.2667 234° Southwest 440 506 39,000  Level Gander Center
11:58AM 52.1833 -53.4500 246° West 440 506 39,000 240 Level Gander Center
11:59AM 52.1167 -53.6167 237° Southwest 440 506 39,500 480 Climbing Gander Center
12:00PM 52.0500 -53.8000 239° Southwest 450 518 40,000 240 Climbing Gander Center
12:01PM 51.9833 -53.9667 237° Southwest 450 518 40,000  Level Gander Center
12:02PM 51.9333 -54.1500 246° West 450 518 40,000  Level Gander Center
12:03PM 51.8500 -54.3167 231° Southwest 440 506 40,000  Level Gander Center
12:04PM 51.8000 -54.4833 244° Southwest 450 518 40,000  Level Gander Center
12:05PM 51.7333 -54.6667 240° Southwest 450 518 40,000  Level Gander Center
12:06PM 51.6667 -54.8333 237° Southwest 450 518 40,000  Level Gander Center
12:07PM 51.6000 -55.0000 237° Southwest 450 518 40,000  Level Gander Center
12:08PM 51.5333 -55.1833 240° Southwest 450 518 40,000  Level Gander Center
12:09PM 51.4667 -55.3500 237° Southwest 450 518 40,000  Level Gander Center
12:10PM 51.4000 -55.5167 237° Southwest 450 518 40,000  Level Gander Center
12:11PM 51.3333 -55.6833 237° Southwest 450 518 40,000  Level Gander Center
12:12PM 51.2667 -55.8500 237° Southwest 450 518 40,000  Level Gander Center
12:13PM 51.2000 -56.0167 237° Southwest 450 518 40,000  Level Gander Center
12:14PM 51.1333 -56.1833 238° Southwest 450 518 40,000  Level Gander Center
12:15PM 51.0667 -56.3500 238° Southwest 440 506 40,000  Level Gander Center
12:16PM 51.0000 -56.5167 238° Southwest 450 518 40,000  Level Gander Center
12:17PM 50.9333 -56.6667 235° Southwest 450 518 40,000  Level Gander Center
12:18PM 50.8667 -56.8500 240° Southwest 440 506 40,000  Level Gander Center
12:19PM 50.8167 -56.9667 236° Southwest 440 506 40,000  Level Moncton Center
12:19PM 50.8000 -57.0167 242° Southwest 430 495 40,000  Level Gander Center
12:20PM 50.7500 -57.1500 239° Southwest 430 495 40,000  Level Moncton Center
12:21PM 50.6667 -57.3167 232° Southwest 440 506 40,000  Level Moncton Center
12:22PM 50.6167 -57.4500 239° Southwest 440 506 40,000  Level Moncton Center
12:22PM 50.6000 -57.5167 249° West 430 495 40,000  Level Gander Center
12:23PM 50.5333 -57.6500 232° Southwest 430 495 40,000  Level Gander Center
12:24PM 50.4500 -57.8167 232° Southwest 430 495 40,000  Level Gander Center
12:25PM 50.3833 -57.9833 238° Southwest 430 495 40,000  Level Gander Center
12:26PM 50.3333 -58.1333 242° Southwest 430 495 40,000  Level Gander Center
12:27PM 50.2667 -58.2333 224° Southwest 430 495 40,000  Level Moncton Center
12:28PM 50.2167 -58.4000 245° Southwest 430 495 40,000  Level Moncton Center
12:29PM 50.1333 -58.5500 229° Southwest 430 495 40,000  Level Moncton Center
12:29PM 50.1167 -58.6000 243° Southwest 430 495 40,000  Level Gander Center
12:30PM 50.0667 -58.7000 232° Southwest 440 506 40,000  Level Moncton Center
12:31PM 50.0000 -58.8667 238° Southwest 440 506 40,000  Level Moncton Center
12:31PM 49.9833 -58.9167 243° Southwest 440 506 40,000  Level Gander Center
12:32PM 49.9167 -59.0667 235° Southwest 440 506 40,000  Level Gander Center
12:33PM 49.8667 -59.1667 232° Southwest 430 495 40,000  Level Moncton Center
12:33PM 49.8500 -59.2000 232° Southwest 430 495 40,000  Level Gander Center
12:34PM 49.7667 -59.3667 232° Southwest 430 495 40,000  Level Gander Center
12:35PM 49.7167 -59.4667 232° Southwest 430 495 40,000  Level Moncton Center
12:36PM 49.6667 -59.6333 245° Southwest 430 495 40,000  Level Moncton Center
12:37PM 49.5833 -59.7667 226° Southwest 430 495 40,000  Level Moncton Center
12:37PM 49.5667 -59.8167 243° Southwest 430 495 40,000  Level Gander Center
12:38PM 49.5000 -59.9667 236° Southwest 430 495 40,000  Level Gander Center
12:39PM 49.4333 -60.1333 238° Southwest 430 495 40,000  Level Gander Center
12:40PM 49.3833 -60.2333 232° Southwest 430 495 40,000  Level Moncton Center
12:40PM 49.3667 -60.2833 243° Southwest 430 495 40,000  Level Gander Center
12:41PM 49.2833 -60.4333 230° Southwest 440 506 40,000  Level Gander Center
12:42PM 49.2167 -60.5667 233° Southwest 430 495 40,000  Level Gander Center
12:43PM 49.1667 -60.6833 237° Southwest 430 495 40,000  Level Moncton Center
12:44PM 49.0833 -60.8500 233° Southwest 430 495 40,000  Level Moncton Center
12:44PM 49.0667 -60.8667 213° Southwest 430 495 40,000  Level Gander Center
12:45PM 49.0167 -60.9833 237° Southwest 440 506 40,000  Level Moncton Center
12:46PM 48.9500 -61.1333 236° Southwest 430 495 40,000  Level Moncton Center
12:47PM 48.8833 -61.2667 233° Southwest 430 495 40,000  Level Moncton Center
12:47PM 48.8500 -61.3333 233° Southwest 430 495 40,000  Level Gander Center
12:48PM 48.8000 -61.4167 228° Southwest 440 506 40,000  Level Moncton Center
12:49PM 48.7333 -61.5833 239° Southwest 440 506 40,000  Level Moncton Center
12:50PM 48.6500 -61.7167 227° Southwest 440 506 40,000  Level Moncton Center
12:50PM 48.6333 -61.7667 243° Southwest 440 506 40,000  Level Gander Center
12:51PM 48.5833 -61.8667 233° Southwest 440 506 40,000  Level Moncton Center
12:51PM 48.5667 -61.9167 243° Southwest 440 506 40,000  Level Gander Center
12:52PM 48.5000 -62.0667 236° Southwest 440 506 40,000  Level Gander Center
12:53PM 48.4500 -62.1500 228° Southwest 440 506 40,000  Level Moncton Center
12:54PM 48.3667 -62.3000 230° Southwest 440 506 40,000  Level Moncton Center
12:55PM 48.2833 -62.4667 233° Southwest 440 506 40,000  Level Moncton Center
12:56PM 48.2167 -62.6167 236° Southwest 440 506 40,000  Level Moncton Center
12:57PM 48.1333 -62.7333 223° Southwest 440 506 40,000  Level Moncton Center
12:58PM 48.0667 -62.9000 239° Southwest 430 495 40,000  Level Moncton Center
12:59PM 48.0000 -63.0167 230° Southwest 440 506 40,000  Level Moncton Center
01:00PM 47.9167 -63.1667 230° Southwest 430 495 40,000  Level Moncton Center
01:01PM 47.8500 -63.3167 237° Southwest 430 495 40,000  Level Moncton Center
01:02PM 47.7833 -63.4500 233° Southwest 430 495 40,000  Level Moncton Center
01:03PM 47.7000 -63.6000 230° Southwest 430 495 40,000  Level Moncton Center
01:04PM 47.6333 -63.7333 233° Southwest 430 495 40,000  Level Moncton Center
01:05PM 47.5500 -63.8833 231° Southwest 430 495 40,000  Level Moncton Center
01:06PM 47.4667 -64.0333 231° Southwest 430 495 40,000  Level Moncton Center
01:07PM 47.4000 -64.1667 234° Southwest 430 495 40,000  Level Moncton Center
01:08PM 47.3167 -64.3000 227° Southwest 430 495 40,000  Level Moncton Center
01:09PM 47.2500 -64.4500 237° Southwest 430 495 40,000  Level Moncton Center
01:10PM 47.1667 -64.5667 224° Southwest 430 495 40,000  Level Moncton Center
01:11PM 47.1000 -64.7167 237° Southwest 430 495 40,000  Level Moncton Center
01:12PM 47.0167 -64.8333 224° Southwest 430 495 40,000  Level Moncton Center
01:13PM 46.9500 -64.9833 237° Southwest 430 495 40,000  Level Moncton Center
01:14PM 46.8667 -65.1333 231° Southwest 430 495 40,000  Level Moncton Center
01:15PM 46.8000 -65.2500 230° Southwest 430 495 40,000  Level Moncton Center
01:16PM 46.7000 -65.4000 226° Southwest 440 506 40,000  Level Moncton Center
01:17PM 46.6333 -65.5167 230° Southwest 440 506 40,000  Level Moncton Center
01:18PM 46.5500 -65.6667 231° Southwest 430 495 40,000  Level Moncton Center
01:24PM 46.0960 -66.4870 231° Southwest 436 502 40,000  Level FlightAware
01:25PM 46.0460 -66.5720 230° Southwest 435 501 40,000  Level FlightAware
01:25PM 45.9910 -66.6640 229° Southwest 435 501 40,000  Level FlightAware
01:26PM 45.9320 -66.7640 230° Southwest 441 507 40,000  Level FlightAware
01:27PM 45.8780 -66.8540 229° Southwest 441 507 40,000  Level FlightAware
01:27PM 45.8280 -66.9380 230° Southwest 440 506 40,000  Level FlightAware
01:28PM 45.7660 -67.0410 229° Southwest 441 507 40,000  Level FlightAware
01:29PM 45.7120 -67.1300 229° Southwest 443 510 40,000  Level FlightAware
01:30PM 45.6520 -67.2290 229° Southwest 445 512 40,000  Level FlightAware
01:30PM 45.5980 -67.3180 229° Southwest 445 512 40,000  Level FlightAware
01:31PM 45.5440 -67.4060 229° Southwest 446 513 40,000  Level FlightAware
01:32PM 45.4820 -67.5070 229° Southwest 446 513 40,000  Level FlightAware
01:32PM 45.4290 -67.5940 229° Southwest 445 512 40,000  Level FlightAware
01:33PM 45.3740 -67.6840 229° Southwest 446 513 40,000  Level FlightAware
01:34PM 45.3130 -67.7820 229° Southwest 442 509 40,000  Level FlightAware
01:35PM 45.2520 -67.8770 228° Southwest 442 509 40,000  Level FlightAware
01:35PM 45.1950 -67.9670 228° Southwest 438 504 40,000  Level FlightAware
01:36PM 45.1410 -68.0520 228° Southwest 438 504 40,000  Level FlightAware
01:37PM 45.0780 -68.1500 228° Southwest 439 505 40,000  Level FlightAware
01:37PM 45.0230 -68.2350 228° Southwest 442 509 40,000  Level FlightAware
01:38PM 44.9670 -68.3230 228° Southwest 450 518 40,000  Level FlightAware
01:39PM 44.9140 -68.4040 227° Southwest 450 518 40,000  Level FlightAware
01:39PM 44.8430 -68.5140 228° Southwest 453 521 40,000  Level FlightAware
01:40PM 44.7810 -68.6090 227° Southwest 454 522 40,000  Level FlightAware
01:41PM 44.7230 -68.6970 227° Southwest 449 517 40,000  Level FlightAware
01:41PM 44.6670 -68.7840 228° Southwest 449 517 40,000  Level FlightAware
01:42PM 44.6030 -68.8810 227° Southwest 449 517 40,000  Level FlightAware
01:43PM 44.5490 -68.9630 227° Southwest 449 517 40,000  Level FlightAware
01:44PM 44.4880 -69.0550 227° Southwest 450 518 40,000  Level FlightAware
01:44PM 44.4300 -69.1430 227° Southwest 450 518 40,000  Level FlightAware
01:45PM 44.3750 -69.2260 227° Southwest 452 520 40,000  Level FlightAware
01:46PM 44.3060 -69.3280 227° Southwest 453 521 40,000  Level FlightAware
01:46PM 44.2490 -69.4140 227° Southwest 451 519 40,000  Level FlightAware
01:47PM 44.1860 -69.5070 227° Southwest 449 517 40,000  Level FlightAware
01:48PM 44.1360 -69.5820 227° Southwest 449 517 40,000  Level FlightAware
01:49PM 44.0650 -69.6860 226° Southwest 450 518 40,000  Level FlightAware
01:49PM 44.0060 -69.7730 227° Southwest 452 520 40,000  Level FlightAware
01:50PM 43.9510 -69.8540 227° Southwest 452 520 40,000  Level FlightAware
01:51PM 43.8860 -69.9490 227° Southwest 451 519 40,000  Level FlightAware
01:51PM 43.8290 -70.0320 226° Southwest 449 517 40,000  Level FlightAware
01:52PM 43.7710 -70.1160 226° Southwest 451 519 40,000  Level FlightAware
01:53PM 43.7060 -70.2110 227° Southwest 449 517 40,000  Level FlightAware
01:53PM 43.6490 -70.2930 226° Southwest 449 517 40,000  Level FlightAware
01:54PM 43.5850 -70.3860 226° Southwest 453 521 40,000  Level FlightAware
01:55PM 43.5280 -70.4680 226° Southwest 451 519 40,000  Level FlightAware
01:55PM 43.4690 -70.5510 226° Southwest 450 518 40,000  Level FlightAware
01:56PM 43.4030 -70.6460 226° Southwest 447 514 40,000  Level FlightAware
01:57PM 43.3470 -70.7280 227° Southwest 449 517 40,000  Level FlightAware
01:58PM 43.2830 -70.8190 226° Southwest 452 520 40,000  Level FlightAware
01:58PM 43.2260 -70.9010 226° Southwest 451 519 40,000  Level FlightAware
01:59PM 43.1600 -70.9970 227° Southwest 453 521 40,000  Level FlightAware
02:00PM 43.1010 -71.0800 226° Southwest 453 521 40,000  Level FlightAware
02:00PM 43.0430 -71.1630 226° Southwest 453 521 40,000  Level FlightAware
02:01PM 42.9790 -71.2540 226° Southwest 456 525 40,000  Level FlightAware
02:02PM 42.9210 -71.3360 226° Southwest 459 528 40,000  Level FlightAware
02:02PM 42.8620 -71.4200 226° Southwest 461 531 40,000  Level FlightAware
02:03PM 42.7930 -71.5160 226° Southwest 461 531 40,000  Level FlightAware
02:04PM 42.7350 -71.5980 226° Southwest 460 529 40,000  Level FlightAware
02:05PM 42.6680 -71.6910 226° Southwest 456 525 40,000  Level FlightAware
02:05PM 42.6100 -71.7720 226° Southwest 454 522 40,000  Level FlightAware
02:06PM 42.5520 -71.8530 226° Southwest 454 522 40,000  Level FlightAware
02:07PM 42.4850 -71.9450 225° Southwest 457 526 40,000  Level FlightAware
02:07PM 42.4250 -72.0290 226° Southwest 459 528 40,000  Level FlightAware
02:08PM 42.3590 -72.1190 225° Southwest 463 533 40,000  Level FlightAware
02:09PM 42.2990 -72.2020 226° Southwest 464 534 40,000  Level FlightAware
02:10PM 42.2290 -72.2970 225° Southwest 463 533 40,000  Level FlightAware
02:10PM 42.1710 -72.3770 226° Southwest 459 528 40,000  Level FlightAware
02:11PM 42.1100 -72.4600 225° Southwest 461 531 40,000  Level FlightAware
02:12PM 42.0430 -72.5500 225° Southwest 464 534 40,000  Level FlightAware
02:12PM 41.9850 -72.6290 225° Southwest 465 535 40,000  Level FlightAware
02:13PM 41.9240 -72.7120 225° Southwest 461 531 40,000  Level FlightAware
02:14PM 41.8470 -72.8180 226° Southwest 458 527 40,000  Level FlightAware
02:15PM 41.9640 -72.6580 45° Northeast 463 533 40,000  Level FlightAware
02:15PM 41.7308 -72.9756 226° Southwest 464 534 40,000  Level FlightAware ADS-B
02:16PM 41.6843 -73.0386 225° Southwest 466 536 40,000  Level FlightAware ADS-B
02:16PM 41.6370 -73.1027 225° Southwest 467 537 40,000 420 Level FlightAware ADS-B
02:17PM 41.5772 -73.1834 225° Southwest 465 535 40,500 840 Climbing FlightAware ADS-B
02:17PM 41.5310 -73.2452 225° Southwest 432 497 41,000 420 Climbing FlightAware ADS-B
02:18PM 41.4810 -73.3127 225° Southwest 429 494 41,000  Level FlightAware ADS-B
02:18PM 41.4337 -73.3761 225° Southwest 429 494 41,000  Level FlightAware ADS-B
02:19PM 41.3885 -73.4367 225° Southwest 424 488 41,000  Level FlightAware ADS-B
02:20PM 41.3458 -73.4936 225° Southwest 425 489 41,000  Level FlightAware ADS-B
02:20PM 41.2998 -73.5551 225° Southwest 429 494 41,000  Level FlightAware ADS-B
02:21PM 41.2540 -73.6257 229° Southwest 421 484 41,000 -240 Level FlightAware ADS-B
02:21PM 41.2060 -73.7080 232° Southwest 420 483 40,700 -1,800 Descending FlightAware
02:22PM 41.1451 -73.8096 232° Southwest 445 512 38,400 -1,980 Descending FlightAware ADS-B
02:23PM 41.0941 -73.8953 232° Southwest 471 542 38,000 -360 Descending FlightAware ADS-B
02:23PM 41.0509 -73.9677 232° Southwest 474 545 38,000  Level FlightAware ADS-B
02:24PM 41.0197 -74.0197 232° Southwest 471 542 38,000  Level FlightAware ADS-B
02:24PM 41.0064 -74.0419 232° Southwest 475 547 38,000  Level FlightAware ADS-B
02:24PM 40.9723 -74.0988 232° Southwest 475 547 38,000  Level FlightAware ADS-B
02:24PM 40.9655 -74.1102 232° Southwest 475 547 38,000  Level FlightAware ADS-B
02:25PM 40.9291 -74.1708 232° Southwest 477 549 38,000  Level FlightAware ADS-B
02:25PM 40.9219 -74.1828 232° Southwest 477 549 38,000  Level FlightAware ADS-B
02:25PM 40.8876 -74.2397 231° Southwest 478 550 38,000  Level FlightAware ADS-B
02:25PM 40.8803 -74.2518 231° Southwest 478 550 38,000  Level FlightAware ADS-B
02:26PM 40.8386 -74.3210 231° Southwest 480 552 38,000  Level FlightAware ADS-B
02:26PM 40.7956 -74.3922 231° Southwest 480 552 38,000  Level FlightAware ADS-B
02:27PM 40.7534 -74.4618 231° Southwest 479 551 38,000  Level FlightAware ADS-B
02:27PM 40.7118 -74.5303 231° Southwest 479 551 38,000  Level FlightAware ADS-B
02:28PM 40.6697 -74.5994 231° Southwest 479 551 38,000  Level FlightAware ADS-B
02:28PM 40.6273 -74.6690 231° Southwest 478 550 38,000  Level FlightAware ADS-B
02:29PM 40.5882 -74.7329 231° Southwest 480 552 38,000  Level FlightAware ADS-B
02:29PM 40.5679 -74.7630 228° Southwest 485 558 38,000  Level FlightAware ADS-B
02:30PM 40.5186 -74.8326 227° Southwest 484 557 38,000  Level FlightAware ADS-B
02:30PM 40.4633 -74.9106 227° Southwest 483 556 38,000  Level FlightAware ADS-B
02:31PM 40.4106 -74.9852 227° Southwest 483 556 38,000 -240 Level FlightAware ADS-B
02:31PM 40.3626 -75.0526 227° Southwest 484 557 37,800 -780 Descending FlightAware ADS-B
02:32PM 40.3150 -75.1193 227° Southwest 480 552 37,200 -1,020 Descending FlightAware ADS-B
02:32PM 40.2645 -75.1899 227° Southwest 473 544 36,700 -960 Descending FlightAware ADS-B
02:33PM 40.2181 -75.2547 227° Southwest 471 542 36,200 -660 Descending FlightAware ADS-B
02:34PM 40.1682 -75.3242 227° Southwest 468 539 36,000 -240 Descending FlightAware ADS-B
02:34PM 40.1209 -75.3900 227° Southwest 470 541 36,000  Level FlightAware ADS-B
02:35PM 40.0757 -75.4527 227° Southwest 468 539 36,000  Level FlightAware ADS-B
02:35PM 40.0277 -75.5191 227° Southwest 463 533 36,000  Level FlightAware ADS-B
02:36PM 39.9800 -75.5850 227° Southwest 464 534 36,000  Level FlightAware ADS-B
02:36PM 39.9340 -75.6485 227° Southwest 466 536 36,000  Level FlightAware ADS-B
02:37PM 39.8811 -75.7299 230° Southwest 460 529 36,000  Level FlightAware ADS-B
02:37PM 39.8381 -75.7984 231° Southwest 459 528 36,000  Level FlightAware ADS-B
02:38PM 39.7969 -75.8642 231° Southwest 459 528 36,000  Level FlightAware ADS-B
02:38PM 39.7563 -75.9288 231° Southwest 461 531 36,000  Level FlightAware ADS-B
02:39PM 39.7220 -75.9830 231° Southwest 458 527 36,000  Level FlightAware
02:39PM 39.7077 -76.0059 231° Southwest 457 526 36,000  Level FlightAware ADS-B
02:40PM 39.6673 -76.0699 231° Southwest 455 524 36,000  Level FlightAware ADS-B
02:40PM 39.6273 -76.1313 230° Southwest 454 522 36,000  Level FlightAware ADS-B
02:41PM 39.5834 -76.2024 231° Southwest 454 522 36,000  Level FlightAware ADS-B
02:41PM 39.5179 -76.3029 230° Southwest 458 527 36,000  Level FlightAware ADS-B
02:42PM 39.4718 -76.3735 230° Southwest 458 527 36,000  Level FlightAware ADS-B
02:42PM 39.4296 -76.4393 230° Southwest 458 527 36,000  Level FlightAware ADS-B
02:43PM 39.3738 -76.5275 231° Southwest 458 527 36,000  Level FlightAware ADS-B
02:44PM 39.3336 -76.5908 231° Southwest 458 527 36,000  Level FlightAware ADS-B
02:44PM 39.2908 -76.6579 231° Southwest 457 526 36,000  Level FlightAware ADS-B
02:45PM 39.2600 -76.7060 230° Southwest 455 524 36,000  Level FlightAware
02:45PM 39.2398 -76.7378 231° Southwest 455 524 36,000  Level FlightAware ADS-B
02:45PM 39.1914 -76.8132 230° Southwest 454 522 36,000  Level FlightAware ADS-B
02:46PM 39.1486 -76.8799 230° Southwest 454 522 36,000  Level FlightAware ADS-B
02:46PM 39.1073 -76.9442 230° Southwest 455 524 36,000  Level FlightAware ADS-B
02:47PM 39.0611 -77.0137 229° Southwest 454 522 36,000  Level FlightAware ADS-B
02:47PM 39.0396 -77.0417 225° Southwest 458 527 36,000  Level FlightAware ADS-B
02:48PM 38.9792 -77.1098 221° Southwest 461 531 36,000  Level FlightAware ADS-B
02:48PM 38.9296 -77.1644 221° Southwest 461 531 36,000  Level FlightAware ADS-B
02:49PM 38.8780 -77.2211 221° Southwest 458 527 36,000  Level FlightAware ADS-B
02:49PM 38.8285 -77.2752 220° Southwest 455 524 36,000  Level FlightAware ADS-B
02:50PM 38.7726 -77.3364 220° Southwest 453 521 36,000  Level FlightAware ADS-B
02:51PM 38.7237 -77.3897 220° Southwest 453 521 36,000  Level FlightAware ADS-B
02:51PM 38.6528 -77.4668 220° Southwest 457 526 36,000  Level FlightAware ADS-B
02:52PM 38.5812 -77.5446 220° Southwest 454 522 36,000  Level FlightAware ADS-B
02:53PM 38.5318 -77.5980 220° Southwest 456 525 36,000  Level FlightAware ADS-B
02:53PM 38.4831 -77.6505 220° Southwest 456 525 36,000  Level FlightAware ADS-B
02:54PM 38.4272 -77.7108 220° Southwest 455 524 36,000  Level FlightAware ADS-B
02:54PM 38.3790 -77.7620 220° Southwest 453 521 36,000  Level FlightAware
02:55PM 38.3227 -77.8231 220° Southwest 453 521 36,000  Level FlightAware ADS-B
02:55PM 38.2723 -77.8772 220° Southwest 455 524 36,000  Level FlightAware ADS-B
02:56PM 38.2111 -77.9426 220° Southwest 457 526 36,000  Level FlightAware ADS-B
02:57PM 38.0850 -78.0769 220° Southwest 457 526 36,000  Level FlightAware ADS-B
02:58PM 38.0300 -78.1370 221° Southwest 455 524 36,000  Level FlightAware
02:58PM 37.9870 -78.1910 225° Southwest 453 521 36,000  Level FlightAware
02:59PM 37.9230 -78.2840 229° Southwest 456 525 36,000  Level FlightAware
03:01PM 37.7350 -78.5540 229° Southwest 452 520 36,000  Level FlightAware
03:02PM 37.6810 -78.6310 228° Southwest 452 520 36,000  Level FlightAware
03:03PM 37.5880 -78.7430 224° Southwest 454 522 36,000  Level FlightAware
03:04PM 37.5360 -78.8050 223° Southwest 454 522 36,000  Level FlightAware
03:04PM 37.4840 -78.8660 223° Southwest 454 522 36,000 -900 Level FlightAware
03:06PM 37.3250 -79.0050 215° Southwest 456 525 34,300 -960 Descending FlightAware
03:07PM 37.2250 -79.1050 219° Southwest 457 526 34,000 -180 Descending FlightAware
03:07PM 37.1560 -79.1730 218° Southwest 458 527 34,000  Level FlightAware
03:08PM 37.0990 -79.2290 218° Southwest 458 527 34,000  Level FlightAware
03:09PM 37.0420 -79.2840 218° Southwest 458 527 34,000  Level FlightAware
03:09PM 36.9860 -79.3400 219° Southwest 458 527 34,000  Level FlightAware
03:10PM 36.9150 -79.4090 218° Southwest 458 527 34,000  Level FlightAware
03:11PM 36.8720 -79.4510 218° Southwest 458 527 34,000  Level FlightAware
03:11PM 36.8150 -79.5060 218° Southwest 458 527 34,000  Level FlightAware
03:12PM 36.7440 -79.5760 218° Southwest 458 527 34,000  Level FlightAware
03:13PM 36.6870 -79.6310 218° Southwest 458 527 34,000  Level FlightAware
03:14PM 36.6310 -79.6860 218° Southwest 458 527 34,000  Level FlightAware
03:14PM 36.5740 -79.7410 218° Southwest 458 527 34,000  Level FlightAware
03:15PM 36.5170 -79.7970 218° Southwest 458 527 34,000  Level FlightAware
03:16PM 36.4600 -79.8520 218° Southwest 458 527 34,000  Level FlightAware
03:16PM 36.4040 -79.9070 218° Southwest 458 527 34,000 -9,600 Level FlightAware
03:17PM 36.2522 -80.0558 218° Southwest 423 487 22,000 -8,220 Descending Atlanta Center
03:18PM 36.1611 -80.1400 217° Southwest 418 481 21,000 -2,160 Descending Atlanta Center
03:19PM 36.0675 -80.2139 213° Southwest 413 475 17,700 -2,940 Descending Atlanta Center
03:20PM 35.9719 -80.2978 215° Southwest 404 465 15,200 -2,340 Descending Atlanta Center
03:21PM 35.8947 -80.3631 214° Southwest 389 448 13,100 -1,380 Descending Atlanta Center
03:21PM 35.8400 -80.4167 218° Southwest 303 349 13,000 -120 Descending Atlanta Center
03:22PM 35.8214 -80.4253 201° Southwest 348 400 13,000  Level Atlanta Center
03:22PM 35.7769 -80.4681 218° Southwest 295 339 13,000  Level Atlanta Center
03:23PM 35.7483 -80.4897 212° Southwest 310 357 13,000 -120 Level Atlanta Center
03:23PM 35.7158 -80.5194 217° Southwest 296 341 12,900 -840 Descending Atlanta Center
03:24PM 35.6811 -80.5464 212° Southwest 302 348 12,200 -1,500 Descending Atlanta Center
03:29PM 35.4690 -80.9270 212° Southwest 203 234 4,300 -1,380 Descending FlightAware
03:30PM 35.4550 -80.9490 232° Southwest 203 234 4,300 -540 Level FlightAware
03:30PM 35.4450 -80.9430 154° Southeast 192 221 4,000 -720 Descending FlightAware
03:30PM 35.4160 -80.9600 206° Southwest 169 194 3,800 -300 Descending FlightAware
03:31PM 35.3960 -80.9670 196° South 174 200 3,700 -480 Descending FlightAware
03:31PM 35.3750 -80.9660 178° South 185 213 3,400 -780 Descending FlightAware
03:32PM 35.3520 -80.9640 176° South 165 190 3,000 -1,020 Descending FlightAware
03:32PM 35.3320 -80.9620 175° South 157 181 2,500 -1,080 Descending FlightAware
03:32PM 35.3260 -80.9620 180° South 153 176 2,400 -780 Descending FlightAware
03:33PM 35.3040 -80.9600 176° South 131 151 2,000 -660 Descending FlightAware
03:33PM 35.2860 -80.9580 175° South 130 150 1,700 -420 Descending FlightAware
03:34PM 35.2700 -80.9570 177° South 132 152 1,600 -420 Descending FlightAware
03:34PM 35.2506 -80.9553 177° South 128 147 1,300 -720 Descending FAA TRACON SMA TRACON (SMA)
03:35PM 35.2369 -80.9542 176° South 129 148 1,000 -600 Descending FAA TRACON SMA TRACON (SMA)
03:35PM 35.2311 -80.9536 176° South 128 147 900 -180 Descending FAA TRACON SMA TRACON (SMA)
03:35PM 35.2311 -80.9536 321° Northwest 128 147 900  Level FAA TRACON SMA TRACON (SMA)